sensor_id;sensor_type;location;lat;lon;timestamp;P1;durP1;ratioP1;P2;durP2;ratioP2
29538;SDS011;16482;51.046;4.498;2023-04-01T00:00:24;2.05;;;1.15;;
29538;SDS011;16482;51.046;4.498;2023-04-01T00:03:00;2.60;;;1.23;;
29538;SDS011;16482;51.046;4.498;2023-04-01T00:05:27;4.35;;;1.50;;
29538;SDS011;16482;51.046;4.498;2023-04-01T00:07:55;3.08;;;1.35;;
29538;SDS011;16482;51.046;4.498;2023-04-01T00:10:28;2.67;;;1.35;;
29538;SDS011;16482;51.046;4.498;2023-04-01T00:12:57;3.90;;;1.38;;
29538;SDS011;16482;51.046;4.498;2023-04-01T00:15:25;3.42;;;1.40;;
29538;SDS011;16482;51.046;4.498;2023-04-01T00:17:59;2.53;;;1.23;;
29538;SDS011;16482;51.046;4.498;2023-04-01T00:20:28;3.65;;;1.50;;
29538;SDS011;16482;51.046;4.498;2023-04-01T00:22:56;4.07;;;1.33;;
29538;SDS011;16482;51.046;4.498;2023-04-01T00:25:26;3.83;;;1.40;;
29538;SDS011;16482;51.046;4.498;2023-04-01T00:27:54;3.38;;;1.30;;
29538;SDS011;16482;51.046;4.498;2023-04-01T00:30:32;3.00;;;1.13;;
29538;SDS011;16482;51.046;4.498;2023-04-01T00:32:58;3.25;;;1.25;;
29538;SDS011;16482;51.046;4.498;2023-04-01T00:35:26;3.55;;;1.48;;
29538;SDS011;16482;51.046;4.498;2023-04-01T00:37:55;2.60;;;1.25;;
29538;SDS011;16482;51.046;4.498;2023-04-01T00:40:27;2.55;;;1.00;;
29538;SDS011;16482;51.046;4.498;2023-04-01T00:42:56;3.17;;;1.30;;
29538;SDS011;16482;51.046;4.498;2023-04-01T00:45:28;2.63;;;1.13;;
29538;SDS011;16482;51.046;4.498;2023-04-01T00:47:58;2.50;;;1.02;;
29538;SDS011;16482;51.046;4.498;2023-04-01T00:50:29;1.75;;;1.00;;
29538;SDS011;16482;51.046;4.498;2023-04-01T00:52:57;3.10;;;1.10;;
29538;SDS011;16482;51.046;4.498;2023-04-01T00:55:25;3.08;;;1.08;;
29538;SDS011;16482;51.046;4.498;2023-04-01T00:57:54;2.83;;;1.23;;
29538;SDS011;16482;51.046;4.498;2023-04-01T01:00:25;2.05;;;0.90;;
29538;SDS011;16482;51.046;4.498;2023-04-01T01:02:54;2.55;;;0.98;;
29538;SDS011;16482;51.046;4.498;2023-04-01T01:05:32;1.52;;;0.93;;
29538;SDS011;16482;51.046;4.498;2023-04-01T01:08:20;2.85;;;1.15;;
29538;SDS011;16482;51.046;4.498;2023-04-01T01:10:55;1.88;;;1.08;;
29538;SDS011;16482;51.046;4.498;2023-04-01T01:16:06;1.95;;;0.85;;
29538;SDS011;16482;51.046;4.498;2023-04-01T01:24:26;2.03;;;1.20;;
29538;SDS011;16482;51.046;4.498;2023-04-01T01:27:06;3.08;;;1.10;;
29538;SDS011;16482;51.046;4.498;2023-04-01T01:32:24;2.70;;;0.90;;
29538;SDS011;16482;51.046;4.498;2023-04-01T01:35:15;2.97;;;1.02;;
29538;SDS011;16482;51.046;4.498;2023-04-01T01:37:42;1.98;;;0.90;;
29538;SDS011;16482;51.046;4.498;2023-04-01T01:40:11;2.13;;;0.90;;
29538;SDS011;16482;51.046;4.498;2023-04-01T01:42:41;2.45;;;0.95;;
29538;SDS011;16482;51.046;4.498;2023-04-01T01:45:11;2.75;;;1.10;;
29538;SDS011;16482;51.046;4.498;2023-04-01T01:47:43;2.30;;;1.08;;
29538;SDS011;16482;51.046;4.498;2023-04-01T01:50:10;2.28;;;1.00;;
29538;SDS011;16482;51.046;4.498;2023-04-01T01:52:40;1.52;;;0.82;;
29538;SDS011;16482;51.046;4.498;2023-04-01T01:55:22;2.25;;;1.00;;
29538;SDS011;16482;51.046;4.498;2023-04-01T01:57:59;2.50;;;1.13;;
29538;SDS011;16482;51.046;4.498;2023-04-01T02:00:37;2.40;;;0.90;;
29538;SDS011;16482;51.046;4.498;2023-04-01T02:03:05;1.58;;;0.95;;
29538;SDS011;16482;51.046;4.498;2023-04-01T02:05:32;3.65;;;1.00;;
29538;SDS011;16482;51.046;4.498;2023-04-01T02:08:03;2.78;;;1.27;;
29538;SDS011;16482;51.046;4.498;2023-04-01T02:10:39;2.80;;;1.08;;
29538;SDS011;16482;51.046;4.498;2023-04-01T02:13:52;1.30;;;0.90;;
29538;SDS011;16482;51.046;4.498;2023-04-01T02:16:24;2.35;;;0.93;;
29538;SDS011;16482;51.046;4.498;2023-04-01T02:19:18;2.40;;;1.00;;
29538;SDS011;16482;51.046;4.498;2023-04-01T02:21:51;2.08;;;0.90;;
29538;SDS011;16482;51.046;4.498;2023-04-01T02:24:22;2.20;;;1.10;;
29538;SDS011;16482;51.046;4.498;2023-04-01T02:26:50;3.55;;;1.25;;
29538;SDS011;16482;51.046;4.498;2023-04-01T02:29:21;3.17;;;1.02;;
29538;SDS011;16482;51.046;4.498;2023-04-01T02:31:48;2.92;;;1.05;;
29538;SDS011;16482;51.046;4.498;2023-04-01T02:34:19;2.42;;;1.20;;
29538;SDS011;16482;51.046;4.498;2023-04-01T02:36:47;2.28;;;1.00;;
29538;SDS011;16482;51.046;4.498;2023-04-01T02:39:14;1.50;;;0.95;;
29538;SDS011;16482;51.046;4.498;2023-04-01T02:41:43;2.97;;;1.17;;
29538;SDS011;16482;51.046;4.498;2023-04-01T02:44:11;2.25;;;1.10;;
29538;SDS011;16482;51.046;4.498;2023-04-01T02:46:38;1.77;;;0.93;;
29538;SDS011;16482;51.046;4.498;2023-04-01T02:49:04;1.92;;;0.90;;
29538;SDS011;16482;51.046;4.498;2023-04-01T02:51:30;1.50;;;1.00;;
29538;SDS011;16482;51.046;4.498;2023-04-01T02:53:57;2.22;;;1.08;;
29538;SDS011;16482;51.046;4.498;2023-04-01T02:56:23;3.20;;;1.05;;
29538;SDS011;16482;51.046;4.498;2023-04-01T02:58:52;2.85;;;1.05;;
29538;SDS011;16482;51.046;4.498;2023-04-01T03:01:19;2.22;;;0.90;;
29538;SDS011;16482;51.046;4.498;2023-04-01T03:03:47;1.67;;;0.90;;
29538;SDS011;16482;51.046;4.498;2023-04-01T03:06:14;2.08;;;0.98;;
29538;SDS011;16482;51.046;4.498;2023-04-01T03:08:50;3.03;;;1.00;;
29538;SDS011;16482;51.046;4.498;2023-04-01T03:11:16;2.25;;;0.88;;
29538;SDS011;16482;51.046;4.498;2023-04-01T03:13:59;1.73;;;0.95;;
29538;SDS011;16482;51.046;4.498;2023-04-01T03:16:25;2.20;;;0.90;;
29538;SDS011;16482;51.046;4.498;2023-04-01T03:18:54;1.88;;;0.82;;
29538;SDS011;16482;51.046;4.498;2023-04-01T03:21:23;1.17;;;0.70;;
29538;SDS011;16482;51.046;4.498;2023-04-01T03:23:50;2.42;;;0.90;;
29538;SDS011;16482;51.046;4.498;2023-04-01T03:26:19;1.50;;;0.90;;
29538;SDS011;16482;51.046;4.498;2023-04-01T03:28:46;1.27;;;0.65;;
29538;SDS011;16482;51.046;4.498;2023-04-01T03:31:15;2.08;;;0.80;;
29538;SDS011;16482;51.046;4.498;2023-04-01T03:33:44;2.00;;;0.70;;
29538;SDS011;16482;51.046;4.498;2023-04-01T03:36:20;1.67;;;0.90;;
29538;SDS011;16482;51.046;4.498;2023-04-01T03:43:44;3.65;;;0.98;;
29538;SDS011;16482;51.046;4.498;2023-04-01T03:46:19;2.20;;;1.00;;
29538;SDS011;16482;51.046;4.498;2023-04-01T03:48:48;1.33;;;0.70;;
29538;SDS011;16482;51.046;4.498;2023-04-01T03:51:14;1.35;;;0.80;;
29538;SDS011;16482;51.046;4.498;2023-04-01T03:53:58;1.60;;;0.73;;
29538;SDS011;16482;51.046;4.498;2023-04-01T03:56:24;1.33;;;0.75;;
29538;SDS011;16482;51.046;4.498;2023-04-01T03:58:52;1.80;;;0.77;;
29538;SDS011;16482;51.046;4.498;2023-04-01T04:01:19;1.27;;;0.80;;
29538;SDS011;16482;51.046;4.498;2023-04-01T04:03:49;1.88;;;0.90;;
29538;SDS011;16482;51.046;4.498;2023-04-01T04:06:16;1.52;;;0.70;;
29538;SDS011;16482;51.046;4.498;2023-04-01T04:08:45;2.53;;;0.80;;
29538;SDS011;16482;51.046;4.498;2023-04-01T04:11:20;2.58;;;0.90;;
29538;SDS011;16482;51.046;4.498;2023-04-01T04:13:47;1.70;;;1.00;;
29538;SDS011;16482;51.046;4.498;2023-04-01T04:16:16;1.98;;;0.70;;
29538;SDS011;16482;51.046;4.498;2023-04-01T04:18:51;1.77;;;0.80;;
29538;SDS011;16482;51.046;4.498;2023-04-01T04:21:17;1.67;;;0.90;;
29538;SDS011;16482;51.046;4.498;2023-04-01T04:23:52;1.52;;;0.70;;
29538;SDS011;16482;51.046;4.498;2023-04-01T04:26:18;1.00;;;0.63;;
29538;SDS011;16482;51.046;4.498;2023-04-01T04:28:47;0.90;;;0.50;;
29538;SDS011;16482;51.046;4.498;2023-04-01T04:31:22;1.42;;;0.73;;
29538;SDS011;16482;51.046;4.498;2023-04-01T04:33:49;1.45;;;0.80;;
29538;SDS011;16482;51.046;4.498;2023-04-01T04:36:16;1.42;;;0.80;;
29538;SDS011;16482;51.046;4.498;2023-04-01T04:38:45;1.17;;;0.80;;
29538;SDS011;16482;51.046;4.498;2023-04-01T04:41:15;1.60;;;0.88;;
29538;SDS011;16482;51.046;4.498;2023-04-01T04:43:51;1.27;;;0.77;;
29538;SDS011;16482;51.046;4.498;2023-04-01T04:46:18;1.50;;;0.80;;
29538;SDS011;16482;51.046;4.498;2023-04-01T04:48:52;1.13;;;0.80;;
29538;SDS011;16482;51.046;4.498;2023-04-01T04:51:18;2.42;;;0.80;;
29538;SDS011;16482;51.046;4.498;2023-04-01T04:53:48;1.52;;;0.80;;
29538;SDS011;16482;51.046;4.498;2023-04-01T04:56:18;1.40;;;0.68;;
29538;SDS011;16482;51.046;4.498;2023-04-01T04:58:45;1.00;;;0.70;;
29538;SDS011;16482;51.046;4.498;2023-04-01T05:01:20;1.60;;;0.80;;
29538;SDS011;16482;51.046;4.498;2023-04-01T05:03:46;1.75;;;0.90;;
29538;SDS011;16482;51.046;4.498;2023-04-01T05:06:15;1.52;;;0.73;;
29538;SDS011;16482;51.046;4.498;2023-04-01T05:08:48;1.30;;;0.90;;
29538;SDS011;16482;51.046;4.498;2023-04-01T05:11:23;1.23;;;0.77;;
29538;SDS011;16482;51.046;4.498;2023-04-01T05:13:51;1.23;;;0.80;;
29538;SDS011;16482;51.046;4.498;2023-04-01T05:16:18;1.25;;;0.80;;
29538;SDS011;16482;51.046;4.498;2023-04-01T05:18:45;1.08;;;0.70;;
29538;SDS011;16482;51.046;4.498;2023-04-01T05:21:21;2.50;;;0.85;;
29538;SDS011;16482;51.046;4.498;2023-04-01T05:23:47;1.13;;;0.80;;
29538;SDS011;16482;51.046;4.498;2023-04-01T05:26:15;1.42;;;0.70;;
29538;SDS011;16482;51.046;4.498;2023-04-01T05:28:50;1.80;;;1.10;;
29538;SDS011;16482;51.046;4.498;2023-04-01T05:31:16;1.25;;;0.70;;
29538;SDS011;16482;51.046;4.498;2023-04-01T05:33:51;1.45;;;0.90;;
29538;SDS011;16482;51.046;4.498;2023-04-01T05:36:18;0.63;;;0.60;;
29538;SDS011;16482;51.046;4.498;2023-04-01T05:38:46;2.90;;;0.90;;
29538;SDS011;16482;51.046;4.498;2023-04-01T05:41:16;1.70;;;0.90;;
29538;SDS011;16482;51.046;4.498;2023-04-01T05:43:50;1.88;;;0.80;;
29538;SDS011;16482;51.046;4.498;2023-04-01T05:46:16;1.30;;;0.88;;
29538;SDS011;16482;51.046;4.498;2023-04-01T05:48:45;0.88;;;0.68;;
29538;SDS011;16482;51.046;4.498;2023-04-01T05:51:16;0.88;;;0.70;;
29538;SDS011;16482;51.046;4.498;2023-04-01T05:53:45;1.77;;;0.73;;
29538;SDS011;16482;51.046;4.498;2023-04-01T05:56:16;1.35;;;0.80;;
29538;SDS011;16482;51.046;4.498;2023-04-01T05:58:46;2.47;;;1.27;;
29538;SDS011;16482;51.046;4.498;2023-04-01T06:01:16;1.40;;;0.80;;
29538;SDS011;16482;51.046;4.498;2023-04-01T06:03:52;1.70;;;1.00;;
29538;SDS011;16482;51.046;4.498;2023-04-01T06:08:55;1.00;;;0.80;;
29538;SDS011;16482;51.046;4.498;2023-04-01T06:28:53;1.48;;;0.70;;
29538;SDS011;16482;51.046;4.498;2023-04-01T06:37:19;0.77;;;0.70;;
29538;SDS011;16482;51.046;4.498;2023-04-01T06:46:03;1.02;;;0.80;;
29538;SDS011;16482;51.046;4.498;2023-04-01T06:48:51;3.00;;;0.82;;
29538;SDS011;16482;51.046;4.498;2023-04-01T06:59:58;1.63;;;0.93;;
29538;SDS011;16482;51.046;4.498;2023-04-01T07:02:32;1.05;;;0.75;;
29538;SDS011;16482;51.046;4.498;2023-04-01T07:05:05;1.33;;;0.70;;
29538;SDS011;16482;51.046;4.498;2023-04-01T07:07:37;2.50;;;0.80;;
29538;SDS011;16482;51.046;4.498;2023-04-01T07:10:16;1.58;;;0.80;;
29538;SDS011;16482;51.046;4.498;2023-04-01T07:13:02;1.45;;;0.80;;
29538;SDS011;16482;51.046;4.498;2023-04-01T07:15:39;2.92;;;0.70;;
29538;SDS011;16482;51.046;4.498;2023-04-01T07:18:17;3.95;;;0.90;;
29538;SDS011;16482;51.046;4.498;2023-04-01T07:20:50;1.77;;;0.90;;
29538;SDS011;16482;51.046;4.498;2023-04-01T07:23:26;1.08;;;0.70;;
29538;SDS011;16482;51.046;4.498;2023-04-01T07:26:07;3.15;;;0.80;;
29538;SDS011;16482;51.046;4.498;2023-04-01T07:28:45;1.80;;;0.70;;
29538;SDS011;16482;51.046;4.498;2023-04-01T07:31:17;2.20;;;0.80;;
29538;SDS011;16482;51.046;4.498;2023-04-01T07:36:45;1.63;;;0.70;;
29538;SDS011;16482;51.046;4.498;2023-04-01T07:42:44;0.88;;;0.60;;
29538;SDS011;16482;51.046;4.498;2023-04-01T07:53:50;0.82;;;0.60;;
29538;SDS011;16482;51.046;4.498;2023-04-01T07:56:32;0.90;;;0.70;;
29538;SDS011;16482;51.046;4.498;2023-04-01T08:15:27;1.77;;;0.65;;
29538;SDS011;16482;51.046;4.498;2023-04-01T08:18:12;1.33;;;0.60;;
29538;SDS011;16482;51.046;4.498;2023-04-01T08:20:44;4.45;;;0.80;;
29538;SDS011;16482;51.046;4.498;2023-04-01T08:23:27;1.08;;;0.68;;
29538;SDS011;16482;51.046;4.498;2023-04-01T08:32:01;2.13;;;0.77;;
29538;SDS011;16482;51.046;4.498;2023-04-01T08:34:42;2.00;;;0.80;;
29538;SDS011;16482;51.046;4.498;2023-04-01T08:39:46;0.65;;;0.60;;
29538;SDS011;16482;51.046;4.498;2023-04-01T09:08:08;2.15;;;0.82;;
29538;SDS011;16482;51.046;4.498;2023-04-01T09:17:18;1.02;;;0.82;;
29538;SDS011;16482;51.046;4.498;2023-04-01T09:31:53;0.70;;;0.70;;
29538;SDS011;16482;51.046;4.498;2023-04-01T09:34:45;0.80;;;0.75;;
29538;SDS011;16482;51.046;4.498;2023-04-01T09:42:44;2.35;;;0.80;;
29538;SDS011;16482;51.046;4.498;2023-04-01T09:51:26;1.25;;;0.88;;
29538;SDS011;16482;51.046;4.498;2023-04-01T09:54:11;1.13;;;0.70;;
29538;SDS011;16482;51.046;4.498;2023-04-01T10:22:30;1.17;;;0.80;;
29538;SDS011;16482;51.046;4.498;2023-04-01T10:25:44;1.00;;;0.80;;
29538;SDS011;16482;51.046;4.498;2023-04-01T10:37:12;2.08;;;1.10;;
29538;SDS011;16482;51.046;4.498;2023-04-01T11:00:32;1.23;;;1.10;;
29538;SDS011;16482;51.046;4.498;2023-04-01T11:03:53;1.80;;;1.10;;
29538;SDS011;16482;51.046;4.498;2023-04-01T11:23:24;1.50;;;1.30;;
29538;SDS011;16482;51.046;4.498;2023-04-01T11:29:04;1.60;;;1.33;;
29538;SDS011;16482;51.046;4.498;2023-04-01T11:33:07;2.53;;;1.20;;
29538;SDS011;16482;51.046;4.498;2023-04-01T11:35:36;1.48;;;1.27;;
29538;SDS011;16482;51.046;4.498;2023-04-01T11:58:04;1.75;;;1.58;;
29538;SDS011;16482;51.046;4.498;2023-04-01T12:01:06;1.85;;;1.60;;
29538;SDS011;16482;51.046;4.498;2023-04-01T12:06:49;1.90;;;1.60;;
29538;SDS011;16482;51.046;4.498;2023-04-01T12:38:11;1.50;;;1.40;;
29538;SDS011;16482;51.046;4.498;2023-04-01T12:40:56;1.65;;;1.55;;
29538;SDS011;16482;51.046;4.498;2023-04-01T12:43:34;1.95;;;1.75;;
29538;SDS011;16482;51.046;4.498;2023-04-01T12:52:23;1.60;;;1.50;;
29538;SDS011;16482;51.046;4.498;2023-04-01T13:03:30;1.70;;;1.50;;
29538;SDS011;16482;51.046;4.498;2023-04-01T13:23:55;1.83;;;1.55;;
29538;SDS011;16482;51.046;4.498;2023-04-01T13:29:57;1.85;;;1.55;;
29538;SDS011;16482;51.046;4.498;2023-04-01T13:41:01;1.50;;;1.40;;
29538;SDS011;16482;51.046;4.498;2023-04-01T13:44:02;1.40;;;1.30;;
29538;SDS011;16482;51.046;4.498;2023-04-01T13:49:19;1.48;;;1.35;;
29538;SDS011;16482;51.046;4.498;2023-04-01T13:51:56;1.45;;;1.08;;
29538;SDS011;16482;51.046;4.498;2023-04-01T13:54:42;1.85;;;1.42;;
29538;SDS011;16482;51.046;4.498;2023-04-01T14:00:39;1.88;;;1.23;;
29538;SDS011;16482;51.046;4.498;2023-04-01T14:03:28;1.35;;;1.25;;
29538;SDS011;16482;51.046;4.498;2023-04-01T14:06:05;1.40;;;1.30;;
29538;SDS011;16482;51.046;4.498;2023-04-01T14:08:59;1.45;;;1.35;;
29538;SDS011;16482;51.046;4.498;2023-04-01T14:11:38;1.33;;;1.23;;
29538;SDS011;16482;51.046;4.498;2023-04-01T14:30:48;1.50;;;1.30;;
29538;SDS011;16482;51.046;4.498;2023-04-01T14:33:46;1.73;;;1.23;;
29538;SDS011;16482;51.046;4.498;2023-04-01T14:44:57;1.20;;;1.10;;
29538;SDS011;16482;51.046;4.498;2023-04-01T14:48:04;1.23;;;1.13;;
29538;SDS011;16482;51.046;4.498;2023-04-01T14:50:49;1.40;;;1.17;;
29538;SDS011;16482;51.046;4.498;2023-04-01T14:55:48;1.27;;;1.08;;
29538;SDS011;16482;51.046;4.498;2023-04-01T14:58:17;2.97;;;0.80;;
29538;SDS011;16482;51.046;4.498;2023-04-01T15:05:47;0.98;;;0.90;;
29538;SDS011;16482;51.046;4.498;2023-04-01T15:08:20;1.75;;;1.08;;
29538;SDS011;16482;51.046;4.498;2023-04-01T15:16:41;1.23;;;0.90;;
29538;SDS011;16482;51.046;4.498;2023-04-01T15:24:59;1.40;;;1.00;;
29538;SDS011;16482;51.046;4.498;2023-04-01T15:36:27;0.90;;;0.90;;
29538;SDS011;16482;51.046;4.498;2023-04-01T15:42:23;1.52;;;0.90;;
29538;SDS011;16482;51.046;4.498;2023-04-01T15:52:43;0.95;;;0.73;;
29538;SDS011;16482;51.046;4.498;2023-04-01T15:58:20;1.00;;;0.80;;
29538;SDS011;16482;51.046;4.498;2023-04-01T16:01:22;0.98;;;0.70;;
29538;SDS011;16482;51.046;4.498;2023-04-01T16:12:37;0.70;;;0.70;;
29538;SDS011;16482;51.046;4.498;2023-04-01T16:18:17;0.82;;;0.75;;
29538;SDS011;16482;51.046;4.498;2023-04-01T16:21:08;1.17;;;0.60;;
29538;SDS011;16482;51.046;4.498;2023-04-01T16:26:26;0.60;;;0.60;;
29538;SDS011;16482;51.046;4.498;2023-04-01T16:28:54;0.60;;;0.55;;
29538;SDS011;16482;51.046;4.498;2023-04-01T16:42:22;1.45;;;0.70;;
29538;SDS011;16482;51.046;4.498;2023-04-01T16:50:49;0.80;;;0.70;;
29538;SDS011;16482;51.046;4.498;2023-04-01T17:01:03;3.70;;;0.80;;
29538;SDS011;16482;51.046;4.498;2023-04-01T17:04:00;1.88;;;0.70;;
29538;SDS011;16482;51.046;4.498;2023-04-01T17:06:39;0.65;;;0.60;;
29538;SDS011;16482;51.046;4.498;2023-04-01T17:12:20;0.60;;;0.57;;
29538;SDS011;16482;51.046;4.498;2023-04-01T17:15:10;1.48;;;0.85;;
29538;SDS011;16482;51.046;4.498;2023-04-01T17:18:05;1.13;;;0.60;;
29538;SDS011;16482;51.046;4.498;2023-04-01T17:29:05;1.20;;;0.60;;
29538;SDS011;16482;51.046;4.498;2023-04-01T17:31:48;0.60;;;0.57;;
29538;SDS011;16482;51.046;4.498;2023-04-01T17:42:21;0.93;;;0.50;;
29538;SDS011;16482;51.046;4.498;2023-04-01T17:45:10;1.50;;;0.70;;
29538;SDS011;16482;51.046;4.498;2023-04-01T17:56:08;0.82;;;0.70;;
29538;SDS011;16482;51.046;4.498;2023-04-01T17:58:53;1.42;;;0.77;;
29538;SDS011;16482;51.046;4.498;2023-04-01T18:01:30;1.00;;;0.90;;
29538;SDS011;16482;51.046;4.498;2023-04-01T18:04:06;1.15;;;0.70;;
29538;SDS011;16482;51.046;4.498;2023-04-01T18:14:58;1.27;;;0.80;;
29538;SDS011;16482;51.046;4.498;2023-04-01T18:17:55;1.20;;;0.63;;
29538;SDS011;16482;51.046;4.498;2023-04-01T18:23:06;2.10;;;0.90;;
29538;SDS011;16482;51.046;4.498;2023-04-01T18:25:49;0.88;;;0.70;;
29538;SDS011;16482;51.046;4.498;2023-04-01T18:28:21;2.75;;;0.90;;
29538;SDS011;16482;51.046;4.498;2023-04-01T18:31:20;1.77;;;0.93;;
29538;SDS011;16482;51.046;4.498;2023-04-01T18:36:27;1.30;;;0.77;;
29538;SDS011;16482;51.046;4.498;2023-04-01T18:42:16;0.90;;;0.73;;
29538;SDS011;16482;51.046;4.498;2023-04-01T18:45:08;1.58;;;0.70;;
29538;SDS011;16482;51.046;4.498;2023-04-01T18:51:00;2.28;;;0.80;;
29538;SDS011;16482;51.046;4.498;2023-04-01T18:53:38;1.13;;;0.95;;
29538;SDS011;16482;51.046;4.498;2023-04-01T18:56:22;1.85;;;0.90;;
29538;SDS011;16482;51.046;4.498;2023-04-01T18:59:00;1.60;;;1.00;;
29538;SDS011;16482;51.046;4.498;2023-04-01T19:01:33;2.30;;;0.90;;
29538;SDS011;16482;51.046;4.498;2023-04-01T19:04:26;1.77;;;1.00;;
29538;SDS011;16482;51.046;4.498;2023-04-01T19:18:06;1.30;;;0.80;;
29538;SDS011;16482;51.046;4.498;2023-04-01T19:20:59;2.50;;;1.00;;
29538;SDS011;16482;51.046;4.498;2023-04-01T19:23:47;2.22;;;1.00;;
29538;SDS011;16482;51.046;4.498;2023-04-01T19:29:42;2.15;;;1.13;;
29538;SDS011;16482;51.046;4.498;2023-04-01T19:35:33;1.98;;;1.15;;
29538;SDS011;16482;51.046;4.498;2023-04-01T19:38:14;1.65;;;1.00;;
29538;SDS011;16482;51.046;4.498;2023-04-01T19:40:53;3.42;;;1.42;;
29538;SDS011;16482;51.046;4.498;2023-04-01T19:46:33;1.88;;;1.05;;
29538;SDS011;16482;51.046;4.498;2023-04-01T19:49:28;2.08;;;1.10;;
29538;SDS011;16482;51.046;4.498;2023-04-01T20:00:32;2.10;;;1.30;;
29538;SDS011;16482;51.046;4.498;2023-04-01T20:14:15;2.95;;;1.23;;
29538;SDS011;16482;51.046;4.498;2023-04-01T20:19:27;2.38;;;1.40;;
29538;SDS011;16482;51.046;4.498;2023-04-01T20:22:28;2.97;;;1.40;;
29538;SDS011;16482;51.046;4.498;2023-04-01T20:25:21;2.10;;;1.30;;
29538;SDS011;16482;51.046;4.498;2023-04-01T20:28:02;1.73;;;1.30;;
29538;SDS011;16482;51.046;4.498;2023-04-01T20:44:09;3.10;;;1.88;;
29538;SDS011;16482;51.046;4.498;2023-04-01T20:46:56;2.58;;;1.50;;
29538;SDS011;16482;51.046;4.498;2023-04-01T20:50:05;3.00;;;1.85;;
29538;SDS011;16482;51.046;4.498;2023-04-01T20:52:56;3.00;;;1.70;;
29538;SDS011;16482;51.046;4.498;2023-04-01T20:55:52;2.88;;;1.65;;
29538;SDS011;16482;51.046;4.498;2023-04-01T20:58:57;3.33;;;1.80;;
29538;SDS011;16482;51.046;4.498;2023-04-01T21:01:36;2.30;;;1.80;;
29538;SDS011;16482;51.046;4.498;2023-04-01T21:04:36;3.78;;;1.77;;
29538;SDS011;16482;51.046;4.498;2023-04-01T21:07:20;2.63;;;1.50;;
29538;SDS011;16482;51.046;4.498;2023-04-01T21:18:29;1.75;;;1.45;;
29538;SDS011;16482;51.046;4.498;2023-04-01T21:32:30;1.90;;;1.58;;
29538;SDS011;16482;51.046;4.498;2023-04-01T21:35:18;1.88;;;1.55;;
29538;SDS011;16482;51.046;4.498;2023-04-01T21:55:16;2.88;;;1.63;;
29538;SDS011;16482;51.046;4.498;2023-04-01T21:58:07;3.05;;;1.50;;
29538;SDS011;16482;51.046;4.498;2023-04-01T22:06:49;2.10;;;1.42;;
29538;SDS011;16482;51.046;4.498;2023-04-01T22:09:43;1.95;;;1.25;;
29538;SDS011;16482;51.046;4.498;2023-04-01T22:17:32;1.55;;;1.35;;
29538;SDS011;16482;51.046;4.498;2023-04-01T22:31:00;2.33;;;1.48;;
29538;SDS011;16482;51.046;4.498;2023-04-01T22:36:29;1.85;;;1.55;;
29538;SDS011;16482;51.046;4.498;2023-04-01T22:45:02;1.77;;;1.50;;
29538;SDS011;16482;51.046;4.498;2023-04-01T22:47:54;1.67;;;1.50;;
29538;SDS011;16482;51.046;4.498;2023-04-01T22:50:39;1.90;;;1.55;;
29538;SDS011;16482;51.046;4.498;2023-04-01T22:56:05;2.28;;;1.60;;
29538;SDS011;16482;51.046;4.498;2023-04-01T22:58:42;1.40;;;1.30;;
29538;SDS011;16482;51.046;4.498;2023-04-01T23:01:25;2.22;;;1.60;;
29538;SDS011;16482;51.046;4.498;2023-04-01T23:03:56;1.80;;;1.42;;
29538;SDS011;16482;51.046;4.498;2023-04-01T23:06:42;1.90;;;1.70;;
29538;SDS011;16482;51.046;4.498;2023-04-01T23:11:53;1.50;;;1.38;;
29538;SDS011;16482;51.046;4.498;2023-04-01T23:20:24;2.03;;;1.60;;
29538;SDS011;16482;51.046;4.498;2023-04-01T23:23:12;1.50;;;1.25;;
29538;SDS011;16482;51.046;4.498;2023-04-01T23:25:59;1.60;;;1.50;;
29538;SDS011;16482;51.046;4.498;2023-04-01T23:31:01;1.83;;;1.52;;
29538;SDS011;16482;51.046;4.498;2023-04-01T23:33:28;1.60;;;1.50;;
29538;SDS011;16482;51.046;4.498;2023-04-01T23:36:02;1.70;;;1.60;;
29538;SDS011;16482;51.046;4.498;2023-04-01T23:38:37;1.50;;;1.40;;
29538;SDS011;16482;51.046;4.498;2023-04-01T23:41:07;1.60;;;1.50;;
29538;SDS011;16482;51.046;4.498;2023-04-01T23:43:45;1.40;;;1.30;;
29538;SDS011;16482;51.046;4.498;2023-04-01T23:46:34;2.83;;;1.50;;
29538;SDS011;16482;51.046;4.498;2023-04-01T23:49:02;2.22;;;1.88;;
29538;SDS011;16482;51.046;4.498;2023-04-01T23:51:38;2.13;;;1.70;;
29538;SDS011;16482;51.046;4.498;2023-04-01T23:54:17;2.03;;;1.70;;
29538;SDS011;16482;51.046;4.498;2023-04-01T23:57:22;1.90;;;1.60;;
